Time;durP1;ratioP1;P1;durP2;ratioP2;P2;SDS_P1;SDS_P2;PMS_P1;PMS_P2;Temp;Humidity;BMP_temperature;BMP_pressure;BME280_temperature;BME280_humidity;BME280_pressure;Samples;Min_cycle;Max_cycle;Signal;HPM_P1;HPM_P2
2023/06/20 00:00:53;;;;;;;10.07;9.07;;;18.10;99.90;;;;;;5060438;28;20045;-81
2023/06/20 00:03:19;;;;;;;10.98;9.82;;;18.20;99.90;;;;;;5058520;28;20063;-81
2023/06/20 00:05:44;;;;;;;11.77;9.70;;;18.10;99.90;;;;;;5060854;28;20045;-80
2023/06/20 00:08:10;;;;;;;12.25;9.35;;;18.10;99.90;;;;;;5060224;28;20034;-81
2023/06/20 00:10:36;;;;;;;13.88;10.30;;;18.10;99.90;;;;;;5058467;28;20047;-81
2023/06/20 00:13:02;;;;;;;10.75;9.65;;;18.00;99.90;;;;;;5052344;28;20036;-81
2023/06/20 00:15:29;;;;;;;11.32;10.13;;;18.10;99.90;;;;;;5056876;28;20041;-80
2023/06/20 00:17:56;;;;;;;11.55;9.48;;;18.10;99.90;;;;;;5056064;28;20063;-81
2023/06/20 00:20:21;;;;;;;10.55;9.35;;;18.00;99.90;;;;;;5041652;28;20562;-81
2023/06/20 00:22:50;;;;;;;12.30;10.10;;;18.00;99.90;;;;;;5059052;28;20124;-81
2023/06/20 00:25:16;;;;;;;14.35;10.27;;;18.00;99.90;;;;;;5042639;28;20045;-81
2023/06/20 00:27:42;;;;;;;11.45;10.10;;;18.00;99.90;;;;;;5044980;28;20048;-81
2023/06/20 00:30:08;;;;;;;11.40;10.15;;;18.00;99.90;;;;;;5082938;28;20063;-81
2023/06/20 00:32:34;;;;;;;12.43;9.48;;;18.00;99.90;;;;;;5034592;28;20049;-81
2023/06/20 00:34:59;;;;;;;11.32;9.73;;;17.90;99.90;;;;;;5054476;28;20072;-81
2023/06/20 00:37:26;;;;;;;14.55;9.63;;;17.90;99.90;;;;;;5024693;28;20414;-81
2023/06/20 00:39:52;;;;;;;13.13;10.27;;;17.90;99.90;;;;;;5033973;28;20051;-81
2023/06/20 00:42:23;;;;;;;11.10;9.30;;;17.80;99.90;;;;;;5063072;28;20045;-81
2023/06/20 00:44:49;;;;;;;11.75;10.48;;;17.80;99.90;;;;;;5064934;28;20045;-82
2023/06/20 00:47:16;;;;;;;13.98;9.90;;;17.80;99.90;;;;;;5045760;28;20515;-80
2023/06/20 00:49:44;;;;;;;11.35;10.02;;;17.90;99.90;;;;;;5051943;28;20041;-81
2023/06/20 00:52:11;;;;;;;10.98;9.85;;;17.80;99.90;;;;;;5046673;28;20041;-81
2023/06/20 00:54:37;;;;;;;11.97;9.93;;;17.80;99.90;;;;;;5051298;28;20042;-81
2023/06/20 00:57:03;;;;;;;10.70;9.70;;;17.80;99.90;;;;;;5060998;28;20037;-80
2023/06/20 00:59:29;;;;;;;10.60;9.50;;;17.80;99.90;;;;;;5041259;28;20047;-81
2023/06/20 01:01:55;;;;;;;9.68;8.77;;;17.70;99.90;;;;;;5061270;28;20116;-81
2023/06/20 01:04:20;;;;;;;13.60;9.68;;;17.80;99.90;;;;;;5055034;28;20503;-81
2023/06/20 01:06:59;;;;;;;12.40;9.60;;;17.80;99.90;;;;;;5046442;28;20094;-81
2023/06/20 01:09:55;;;;;;;11.80;10.30;;;17.80;99.90;;;;;;5062352;28;20399;-80
2023/06/20 01:12:36;;;;;;;12.25;9.60;;;17.80;99.90;;;;;;5062733;28;20040;-81
2023/06/20 01:15:27;;;;;;;12.75;9.85;;;17.80;99.90;;;;;;5060427;28;20066;-81
2023/06/20 01:17:53;;;;;;;11.63;10.13;;;17.70;99.90;;;;;;5026081;28;20045;-81
2023/06/20 01:20:43;;;;;;;11.32;9.48;;;17.70;99.90;;;;;;5022109;28;20048;-81
2023/06/20 01:23:13;;;;;;;14.90;10.68;;;17.70;99.90;;;;;;5055545;28;20056;-81
2023/06/20 01:25:46;;;;;;;11.20;10.13;;;17.70;99.90;;;;;;5046814;28;20045;-81
2023/06/20 01:28:21;;;;;;;13.43;9.98;;;17.70;99.90;;;;;;5038918;28;20053;-81
2023/06/20 01:31:10;;;;;;;14.10;10.27;;;17.70;99.90;;;;;;5033986;28;20052;-81
2023/06/20 01:33:46;;;;;;;11.27;10.18;;;17.70;99.90;;;;;;5060096;28;20037;-81
2023/06/20 01:36:14;;;;;;;14.93;10.98;;;17.70;99.90;;;;;;5057851;28;20075;-80
2023/06/20 01:38:42;;;;;;;11.43;10.23;;;17.70;99.90;;;;;;5039816;28;20036;-80
2023/06/20 01:41:10;;;;;;;13.25;10.90;;;17.70;99.90;;;;;;5062447;28;20044;-81
2023/06/20 01:43:36;;;;;;;;;;;17.70;99.90;;;;;;5059739;28;20508;-81
2023/06/20 01:46:04;;;;;;;11.52;10.25;;;17.70;99.90;;;;;;5048637;28;20012;-82
2023/06/20 01:48:32;;;;;;;13.50;11.65;;;17.70;99.90;;;;;;5050201;28;20119;-82
2023/06/20 01:50:59;;;;;;;14.25;11.50;;;17.70;99.90;;;;;;5048319;28;20041;-82
2023/06/20 01:53:27;;;;;;;13.43;11.00;;;17.70;99.90;;;;;;5025522;28;21694;-82
2023/06/20 01:55:55;;;;;;;13.23;11.13;;;17.70;99.90;;;;;;5062214;28;20102;-81
2023/06/20 01:58:21;;;;;;;;;;;17.70;99.90;;;;;;5063114;28;20025;-82
2023/06/20 02:00:48;;;;;;;13.02;11.70;;;17.70;99.90;;;;;;5057638;28;19960;-82
2023/06/20 02:03:16;;;;;;;14.43;12.70;;;17.70;99.90;;;;;;5054504;28;20044;-82
2023/06/20 02:05:42;;;;;;;14.35;12.23;;;17.70;99.90;;;;;;5055526;28;20445;-82
2023/06/20 02:08:10;;;;;;;14.10;12.43;;;17.70;99.90;;;;;;5043316;28;20129;-82
2023/06/20 02:10:36;;;;;;;;;;;17.70;99.90;;;;;;5058829;28;20036;-82
2023/06/20 02:13:02;;;;;;;13.50;12.02;;;17.70;99.90;;;;;;5059678;28;19956;-81
2023/06/20 02:15:29;;;;;;;13.65;12.20;;;17.70;99.90;;;;;;5026806;28;20036;-82
2023/06/20 02:17:55;;;;;;;13.97;12.53;;;17.70;99.90;;;;;;5041539;28;20478;-82
2023/06/20 02:20:21;;;;;;;14.02;12.63;;;17.70;99.90;;;;;;5049513;28;20055;-81
2023/06/20 02:22:49;;;;;;;13.90;12.60;;;17.70;99.90;;;;;;5055024;28;20042;-80
2023/06/20 02:25:24;;;;;;;13.65;12.23;;;17.70;99.90;;;;;;5057007;28;20045;-81
2023/06/20 02:27:53;;;;;;;14.75;13.02;;;17.70;99.90;;;;;;5060286;28;20056;-81
2023/06/20 02:30:24;;;;;;;16.75;14.05;;;17.70;99.90;;;;;;5024492;28;20037;-81
2023/06/20 02:32:53;;;;;;;17.52;14.23;;;17.70;99.90;;;;;;5056441;28;20087;-82
2023/06/20 02:35:20;;;;;;;15.02;13.52;;;17.70;99.90;;;;;;5061217;28;20067;-81
2023/06/20 02:37:48;;;;;;;17.08;14.50;;;17.80;99.90;;;;;;5062082;28;20080;-81
2023/06/20 02:40:14;;;;;;;15.57;13.98;;;17.80;99.90;;;;;;5046989;28;20088;-82
2023/06/20 02:42:39;;;;;;;15.27;13.73;;;17.80;99.90;;;;;;5053448;28;20045;-81
2023/06/20 02:45:06;;;;;;;15.13;13.65;;;17.80;99.90;;;;;;5061432;28;20072;-81
2023/06/20 02:47:49;;;;;;;16.08;14.43;;;17.80;99.90;;;;;;5042796;28;20037;-81
2023/06/20 02:50:23;;;;;;;16.27;14.65;;;17.80;99.90;;;;;;5052884;28;20046;-81
2023/06/20 02:53:05;;;;;;;16.08;14.43;;;17.80;99.90;;;;;;5050753;28;20167;-81
2023/06/20 02:55:44;;;;;;;16.27;14.65;;;17.80;99.90;;;;;;5030914;28;20128;-81
2023/06/20 02:58:15;;;;;;;16.60;14.90;;;17.80;99.90;;;;;;5044713;28;20073;-81
2023/06/20 03:00:45;;;;;;;17.42;15.63;;;17.80;99.90;;;;;;5059240;28;20053;-81
2023/06/20 03:03:26;;;;;;;16.90;15.20;;;17.80;99.90;;;;;;5061982;28;20040;-81
2023/06/20 03:05:56;;;;;;;17.67;14.57;;;17.80;99.90;;;;;;5066427;28;20048;-81
2023/06/20 03:08:27;;;;;;;17.58;14.95;;;17.70;99.90;;;;;;5063930;28;20037;-82
2023/06/20 03:10:54;;;;;;;16.38;14.68;;;17.80;99.90;;;;;;5076406;28;20414;-82
2023/06/20 03:13:21;;;;;;;18.00;15.55;;;17.80;99.90;;;;;;5069307;28;20064;-82
2023/06/20 03:15:49;;;;;;;18.05;16.25;;;17.80;99.90;;;;;;5070129;28;20467;-82
2023/06/20 03:18:19;;;;;;;17.90;15.95;;;17.80;99.90;;;;;;5058158;28;20049;-82
2023/06/20 03:20:46;;;;;;;18.90;16.88;;;17.80;99.90;;;;;;5022500;28;20046;-82
2023/06/20 03:23:12;;;;;;;17.85;15.80;;;17.80;99.90;;;;;;5057602;28;20037;-82
2023/06/20 03:25:39;;;;;;;18.27;16.35;;;17.80;99.90;;;;;;5053424;28;20048;-82
2023/06/20 03:28:05;;;;;;;18.67;16.17;;;17.80;99.90;;;;;;5054805;28;20045;-82
2023/06/20 03:30:31;;;;;;;19.25;16.30;;;17.80;99.90;;;;;;5053847;28;20040;-83
2023/06/20 03:32:56;;;;;;;19.08;17.10;;;17.80;99.90;;;;;;5052202;28;20403;-83
2023/06/20 03:35:22;;;;;;;18.83;16.83;;;17.80;99.90;;;;;;5053517;28;20112;-80
2023/06/20 03:37:47;;;;;;;18.25;16.27;;;17.80;99.90;;;;;;5035264;28;20116;-80
2023/06/20 03:40:13;;;;;;;18.27;16.38;;;17.80;99.90;;;;;;5059425;28;20390;-80
2023/06/20 03:42:39;;;;;;;17.00;15.27;;;17.80;99.90;;;;;;5060064;28;20040;-80
2023/06/20 03:45:05;;;;;;;19.25;15.73;;;17.80;99.90;;;;;;5060273;28;20041;-80
2023/06/20 03:47:30;;;;;;;18.02;16.33;;;17.80;99.90;;;;;;5060363;28;20041;-80
2023/06/20 03:49:56;;;;;;;19.30;16.33;;;17.80;99.90;;;;;;5060972;28;20044;-81
2023/06/20 03:52:22;;;;;;;20.75;16.17;;;17.90;99.90;;;;;;5059568;28;20041;-80
2023/06/20 03:54:47;;;;;;;19.60;16.08;;;17.90;99.90;;;;;;5059487;28;20040;-82
2023/06/20 03:57:13;;;;;;;17.60;15.80;;;17.90;99.90;;;;;;5042993;28;20120;-82
2023/06/20 03:59:38;;;;;;;18.40;16.25;;;17.90;99.90;;;;;;5053103;28;20056;-82
2023/06/20 04:02:04;;;;;;;18.42;16.25;;;18.00;99.90;;;;;;5061585;28;20041;-82
2023/06/20 04:04:30;;;;;;;17.77;15.93;;;18.00;99.90;;;;;;5056679;28;20394;-82
2023/06/20 04:06:55;;;;;;;17.58;15.88;;;18.00;99.90;;;;;;5060034;28;20045;-82
2023/06/20 04:09:25;;;;;;;17.00;15.20;;;18.00;99.90;;;;;;5045903;28;20055;-82
2023/06/20 04:11:51;;;;;;;17.70;15.90;;;18.00;99.90;;;;;;5054157;28;20061;-82
2023/06/20 04:14:17;;;;;;;16.05;14.40;;;18.00;99.90;;;;;;5034276;28;20112;-83
2023/06/20 04:16:43;;;;;;;16.67;15.02;;;18.10;99.90;;;;;;5040147;28;20036;-81
2023/06/20 04:19:09;;;;;;;17.85;15.82;;;18.10;99.90;;;;;;5056822;28;20045;-82
2023/06/20 04:21:35;;;;;;;16.75;15.07;;;18.10;99.90;;;;;;5054441;28;20044;-81
2023/06/20 04:24:00;;;;;;;16.45;14.75;;;18.10;99.90;;;;;;5058405;28;20051;-81
2023/06/20 04:26:26;;;;;;;16.25;14.70;;;18.10;99.90;;;;;;5057421;28;20069;-80
2023/06/20 04:28:52;;;;;;;16.25;14.55;;;18.20;99.90;;;;;;5058247;28;20064;-81
2023/06/20 04:31:17;;;;;;;15.73;14.23;;;18.20;99.90;;;;;;5057509;28;20037;-81
2023/06/20 04:33:43;;;;;;;16.00;14.25;;;18.20;99.90;;;;;;5057254;28;20045;-81
2023/06/20 04:36:14;;;;;;;16.77;14.95;;;18.20;99.90;;;;;;5052716;28;20052;-80
2023/06/20 04:38:44;;;;;;;15.43;13.90;;;18.30;99.90;;;;;;5055480;28;20060;-80
2023/06/20 04:41:10;;;;;;;16.30;14.63;;;18.30;99.90;;;;;;5053464;28;20124;-80
2023/06/20 04:43:36;;;;;;;19.75;14.98;;;18.40;99.90;;;;;;5057228;28;20037;-81
2023/06/20 04:46:03;;;;;;;17.65;14.48;;;18.40;99.90;;;;;;5061208;28;20041;-83
2023/06/20 04:48:29;;;;;;;15.82;13.93;;;18.40;99.90;;;;;;5041048;28;20075;-82
2023/06/20 04:50:56;;;;;;;17.95;14.77;;;18.50;99.90;;;;;;5058139;28;20056;-82
2023/06/20 04:53:22;;;;;;;14.65;13.20;;;18.60;99.90;;;;;;5060016;28;20036;-82
2023/06/20 04:55:49;;;;;;;14.70;13.30;;;18.70;99.90;;;;;;5065898;28;20093;-82
2023/06/20 04:58:15;;;;;;;16.45;13.73;;;18.80;99.90;;;;;;5054609;28;20041;-82
2023/06/20 05:00:41;;;;;;;14.63;13.25;;;18.90;99.90;;;;;;5053936;28;20055;-82
2023/06/20 05:03:06;;;;;;;15.88;13.85;;;18.90;99.90;;;;;;5055245;28;20127;-82
2023/06/20 05:05:32;;;;;;;14.90;13.35;;;19.00;99.90;;;;;;5034969;28;20040;-82
2023/06/20 05:07:58;;;;;;;16.33;13.50;;;19.10;99.90;;;;;;5019801;28;20057;-81
2023/06/20 05:10:24;;;;;;;13.85;12.52;;;19.20;99.90;;;;;;5052623;28;20057;-82
2023/06/20 05:12:50;;;;;;;16.35;13.50;;;19.30;99.90;;;;;;5051857;28;20483;-81
2023/06/20 05:15:15;;;;;;;15.55;13.25;;;19.40;99.90;;;;;;5053749;28;20057;-82
2023/06/20 05:17:41;;;;;;;14.90;13.40;;;19.40;99.90;;;;;;5051387;28;20041;-82
2023/06/20 05:20:08;;;;;;;14.45;13.00;;;19.60;99.90;;;;;;5021388;28;20041;-82
2023/06/20 05:22:33;;;;;;;14.15;12.65;;;19.60;99.90;;;;;;5037050;28;20111;-82
2023/06/20 05:24:59;;;;;;;15.18;13.13;;;19.70;99.90;;;;;;5050321;28;20048;-82
2023/06/20 05:27:25;;;;;;;14.90;13.30;;;19.70;99.90;;;;;;5049078;28;20037;-84
2023/06/20 05:29:51;;;;;;;14.40;13.07;;;19.70;99.90;;;;;;5030776;28;20052;-82
2023/06/20 05:32:16;;;;;;;14.40;13.10;;;19.70;99.90;;;;;;5026043;28;20041;-82
2023/06/20 05:34:43;;;;;;;14.45;13.15;;;19.80;99.90;;;;;;5050370;28;20135;-83
2023/06/20 05:37:09;;;;;;;15.77;14.07;;;19.80;99.90;;;;;;5047395;28;20466;-83
2023/06/20 05:39:34;;;;;;;15.80;12.80;;;19.80;99.90;;;;;;5047154;28;20894;-83
2023/06/20 05:42:00;;;;;;;14.32;12.85;;;19.90;99.90;;;;;;5052588;28;20120;-82
2023/06/20 05:44:26;;;;;;;15.85;14.40;;;19.90;99.90;;;;;;5035063;28;20045;-82
2023/06/20 05:46:53;;;;;;;15.82;14.13;;;20.00;99.90;;;;;;5031926;28;20044;-81
2023/06/20 05:49:21;;;;;;;15.10;13.60;;;20.10;99.90;;;;;;5054153;28;20064;-82
2023/06/20 05:51:47;;;;;;;15.85;12.98;;;20.20;99.90;;;;;;5037741;28;20060;-82
2023/06/20 05:54:13;;;;;;;16.15;14.07;;;20.30;99.90;;;;;;5034963;28;20056;-82
2023/06/20 05:56:39;;;;;;;13.68;12.30;;;20.30;99.90;;;;;;5052049;28;20411;-81
2023/06/20 05:59:05;;;;;;;14.32;12.93;;;20.30;99.90;;;;;;5056849;28;20047;-81
2023/06/20 06:01:31;;;;;;;14.70;13.20;;;20.30;99.90;;;;;;5056381;28;20044;-81
2023/06/20 06:03:57;;;;;;;16.17;14.48;;;20.30;99.90;;;;;;5063856;28;20119;-81
2023/06/20 06:06:24;;;;;;;15.75;13.68;;;20.20;99.90;;;;;;5050685;28;20091;-81
2023/06/20 06:08:50;;;;;;;14.88;13.43;;;20.10;99.90;;;;;;5051217;28;20128;-82
2023/06/20 06:11:16;;;;;;;14.60;13.30;;;20.10;99.90;;;;;;5030541;28;20056;-83
2023/06/20 06:13:42;;;;;;;14.98;13.48;;;20.10;99.90;;;;;;5033151;28;20042;-83
2023/06/20 06:16:07;;;;;;;14.93;13.43;;;20.00;99.90;;;;;;5028851;28;20044;-83
2023/06/20 06:18:33;;;;;;;16.00;14.35;;;20.10;99.90;;;;;;5053773;28;20033;-81
2023/06/20 06:20:59;;;;;;;15.80;14.20;;;20.10;99.90;;;;;;5048564;28;20068;-81
2023/06/20 06:23:25;;;;;;;15.30;13.77;;;20.10;99.90;;;;;;5023210;28;20494;-81
2023/06/20 06:25:52;;;;;;;15.13;13.73;;;20.20;99.90;;;;;;5059767;28;20090;-81
2023/06/20 06:28:18;;;;;;;15.35;13.80;;;20.10;99.90;;;;;;5061651;28;20495;-81
2023/06/20 06:30:43;;;;;;;14.82;13.32;;;20.20;99.90;;;;;;5067151;28;20029;-81
2023/06/20 06:33:11;;;;;;;14.50;13.20;;;20.30;99.90;;;;;;5058981;28;20052;-81
2023/06/20 06:35:37;;;;;;;16.25;14.68;;;20.20;99.90;;;;;;5058950;28;20040;-80
2023/06/20 06:38:05;;;;;;;15.13;13.55;;;20.20;99.90;;;;;;5036741;28;20053;-81
2023/06/20 06:40:31;;;;;;;15.43;13.95;;;20.20;99.90;;;;;;5050782;28;20045;-80
2023/06/20 06:42:57;;;;;;;20.00;14.47;;;20.20;99.90;;;;;;5059635;28;20075;-80
2023/06/20 06:45:23;;;;;;;16.38;14.80;;;20.30;99.90;;;;;;5049205;28;20279;-81
2023/06/20 06:47:49;;;;;;;14.90;13.57;;;20.30;99.90;;;;;;5056575;28;20052;-80
2023/06/20 06:50:15;;;;;;;16.20;14.45;;;20.30;99.90;;;;;;5055289;28;20087;-81
2023/06/20 06:52:41;;;;;;;15.35;13.55;;;20.30;99.90;;;;;;5057709;28;20053;-80
2023/06/20 06:55:07;;;;;;;15.77;14.27;;;20.30;99.90;;;;;;5036373;28;20514;-80
2023/06/20 06:57:33;;;;;;;15.10;13.80;;;20.40;99.90;;;;;;5048460;28;20045;-82
2023/06/20 06:59:59;;;;;;;16.70;14.15;;;20.40;99.90;;;;;;5049632;28;20046;-81
2023/06/20 07:02:26;;;;;;;17.55;14.68;;;20.40;99.90;;;;;;5049631;28;20061;-84
2023/06/20 07:04:52;;;;;;;15.07;13.68;;;20.40;99.90;;;;;;5044801;28;20044;-84
2023/06/20 07:07:18;;;;;;;15.40;13.90;;;20.50;99.90;;;;;;5044316;28;20037;-84
2023/06/20 07:09:44;;;;;;;16.58;14.98;;;20.50;99.90;;;;;;5042314;28;20045;-85
2023/06/20 07:12:10;;;;;;;15.73;14.10;;;20.50;99.90;;;;;;5043159;28;20041;-85
2023/06/20 07:14:35;;;;;;;18.85;14.63;;;20.40;99.90;;;;;;5045618;28;20489;-84
2023/06/20 07:17:01;;;;;;;17.50;15.40;;;20.40;99.90;;;;;;5011361;28;20395;-83
2023/06/20 07:19:26;;;;;;;15.50;13.95;;;20.40;99.90;;;;;;5043065;28;20392;-84
2023/06/20 07:21:52;;;;;;;15.70;14.23;;;20.40;99.90;;;;;;5047177;28;20120;-83
2023/06/20 07:24:18;;;;;;;16.73;15.02;;;20.30;99.90;;;;;;5035737;28;20472;-80
2023/06/20 07:26:44;;;;;;;16.70;15.00;;;20.30;99.90;;;;;;5071043;28;20101;-80
2023/06/20 07:29:10;;;;;;;15.88;14.38;;;20.30;99.90;;;;;;5050481;28;20045;-81
2023/06/20 07:31:36;;;;;;;15.70;14.13;;;20.30;99.90;;;;;;5023741;28;20498;-80
2023/06/20 07:34:01;;;;;;;17.05;15.38;;;20.50;99.90;;;;;;5059620;28;20048;-81
2023/06/20 07:36:27;;;;;;;17.02;15.43;;;20.60;99.90;;;;;;5058799;28;20051;-80
2023/06/20 07:38:52;;;;;;;16.00;14.43;;;20.70;99.90;;;;;;5022441;28;20045;-80
2023/06/20 07:41:18;;;;;;;16.77;14.25;;;21.00;99.90;;;;;;5018089;28;20043;-80
2023/06/20 07:43:44;;;;;;;16.63;15.07;;;21.20;99.90;;;;;;5049217;28;20037;-80
2023/06/20 07:46:09;;;;;;;16.45;14.95;;;21.50;99.90;;;;;;5049638;28;20040;-81
2023/06/20 07:48:35;;;;;;;17.48;15.45;;;21.60;99.90;;;;;;5036780;28;20037;-80
2023/06/20 07:51:01;;;;;;;16.83;15.23;;;21.70;99.90;;;;;;5056135;28;20045;-80
2023/06/20 07:53:26;;;;;;;16.23;14.73;;;21.80;99.90;;;;;;5038975;28;20040;-79
2023/06/20 07:55:55;;;;;;;16.85;15.05;;;22.00;99.90;;;;;;5059130;28;20108;-80
2023/06/20 07:58:21;;;;;;;16.33;14.20;;;22.10;99.90;;;;;;5051099;28;20040;-82
2023/06/20 08:00:47;;;;;;;15.85;14.25;;;22.40;99.90;;;;;;5050001;28;20120;-81
2023/06/20 08:03:13;;;;;;;16.52;15.02;;;22.60;99.90;;;;;;5050622;28;20082;-81
2023/06/20 08:05:38;;;;;;;15.90;14.35;;;22.90;99.90;;;;;;5048627;28;20041;-81
2023/06/20 08:08:04;;;;;;;15.00;13.70;;;23.10;99.90;;;;;;5053052;28;20044;-81
2023/06/20 08:10:31;;;;;;;14.80;13.50;;;23.30;99.90;;;;;;5054392;28;20135;-81
2023/06/20 08:12:56;;;;;;;15.18;13.85;;;23.70;99.90;;;;;;5034996;28;20119;-81
2023/06/20 08:15:22;;;;;;;13.18;11.93;;;24.00;99.90;;;;;;5054405;28;20613;-82
2023/06/20 08:17:48;;;;;;;14.20;12.80;;;24.40;99.90;;;;;;5058586;28;21232;-81
2023/06/20 08:20:13;;;;;;;14.32;12.75;;;24.60;99.90;;;;;;5040636;28;20116;-81
2023/06/20 08:22:39;;;;;;;13.48;12.25;;;24.80;99.90;;;;;;5060872;28;20045;-81
2023/06/20 08:25:05;;;;;;;11.70;10.70;;;24.60;99.90;;;;;;5059269;28;20040;-81
2023/06/20 08:27:32;;;;;;;11.85;10.75;;;24.70;99.90;;;;;;5052367;28;20096;-81
2023/06/20 08:29:57;;;;;;;10.70;9.80;;;24.70;99.90;;;;;;5059524;28;20041;-81
2023/06/20 08:32:23;;;;;;;10.88;9.88;;;25.20;99.90;;;;;;5056645;28;20052;-82
2023/06/20 08:34:49;;;;;;;10.45;9.48;;;25.30;99.90;;;;;;5061187;28;20426;-82
2023/06/20 08:37:17;;;;;;;9.93;8.93;;;25.80;99.90;;;;;;5042754;28;20120;-81
2023/06/20 08:39:43;;;;;;;10.23;9.43;;;26.30;99.90;;;;;;5061360;28;22174;-81
2023/06/20 08:42:10;;;;;;;9.70;8.80;;;26.50;99.90;;;;;;5042599;28;20063;-81
2023/06/20 08:44:36;;;;;;;9.32;8.52;;;26.90;99.90;;;;;;5061403;28;20044;-81
2023/06/20 08:47:02;;;;;;;10.52;9.63;;;27.20;99.90;;;;;;5057119;28;20044;-81
2023/06/20 08:49:28;;;;;;;10.35;9.45;;;27.10;99.90;;;;;;5067273;28;20048;-81
2023/06/20 08:51:58;;;;;;;9.52;8.70;;;26.80;99.90;;;;;;5060212;28;20029;-82
2023/06/20 08:54:27;;;;;;;9.35;8.52;;;27.10;99.90;;;;;;5061134;28;20129;-81
2023/06/20 08:56:54;;;;;;;10.18;9.25;;;27.30;99.90;;;;;;5060407;28;20266;-81
2023/06/20 08:59:23;;;;;;;9.15;8.25;;;27.20;99.90;;;;;;5036372;28;20037;-80
2023/06/20 09:01:48;;;;;;;10.10;8.80;;;27.50;99.90;;;;;;5066693;28;20037;-81
2023/06/20 09:04:14;;;;;;;9.15;8.23;;;27.40;99.90;;;;;;5063279;28;20071;-81
2023/06/20 09:06:40;;;;;;;9.45;8.65;;;27.60;99.90;;;;;;5056924;28;20061;-81
2023/06/20 09:09:16;;;;;;;8.10;7.40;;;27.50;99.90;;;;;;5035882;28;20042;-81
2023/06/20 09:11:48;;;;;;;7.27;6.67;;;27.70;99.90;;;;;;5036446;28;20037;-81
2023/06/20 09:14:15;;;;;;;6.60;6.10;;;27.30;99.90;;;;;;5040588;28;20046;-81
2023/06/20 09:16:42;;;;;;;10.77;5.80;;;27.60;99.90;;;;;;5038591;28;20120;-81
2023/06/20 09:19:08;;;;;;;6.10;5.60;;;27.30;99.90;;;;;;5039180;28;20053;-81
2023/06/20 09:21:36;;;;;;;5.73;4.97;;;27.50;99.90;;;;;;5034670;28;20079;-82
2023/06/20 09:24:06;;;;;;;5.50;4.72;;;27.70;99.90;;;;;;5018154;28;20092;-81
2023/06/20 09:26:33;;;;;;;6.85;6.15;;;27.90;99.90;;;;;;5031433;28;20107;-82
2023/06/20 09:29:09;;;;;;;6.10;5.50;;;27.90;99.90;;;;;;5033855;28;20113;-81
2023/06/20 09:31:48;;;;;;;6.50;5.90;;;28.20;99.90;;;;;;5033445;28;20050;-81
2023/06/20 09:34:16;;;;;;;5.82;5.32;;;28.10;99.90;;;;;;5029267;28;20038;-80
2023/06/20 09:36:42;;;;;;;6.60;6.00;;;28.40;99.90;;;;;;5031700;28;20045;-81
2023/06/20 09:39:20;;;;;;;6.87;6.20;;;28.00;99.90;;;;;;5030521;28;20037;-84
2023/06/20 09:41:47;;;;;;;7.57;5.63;;;28.10;99.90;;;;;;5032486;28;20100;-83
2023/06/20 09:44:13;;;;;;;6.70;5.70;;;28.00;99.90;;;;;;5031390;28;20058;-81
2023/06/20 09:46:40;;;;;;;6.53;6.03;;;28.30;99.90;;;;;;5032826;28;20068;-82
2023/06/20 09:49:06;;;;;;;6.93;5.35;;;28.10;99.90;;;;;;5032481;28;20412;-81
2023/06/20 09:51:34;;;;;;;5.97;5.53;;;27.80;99.90;;;;;;5037040;28;20061;-81
2023/06/20 09:54:02;;;;;;;;;;;27.50;99.90;;;;;;5043226;28;20049;-81
2023/06/20 09:56:29;;;;;;;7.05;5.78;;;27.60;99.90;;;;;;5050125;28;19960;-80
2023/06/20 09:58:59;;;;;;;5.72;5.22;;;27.60;99.90;;;;;;5039858;28;20567;-81
2023/06/20 10:01:27;;;;;;;7.30;6.05;;;28.10;99.90;;;;;;5038922;28;20081;-81
2023/06/20 10:03:55;;;;;;;6.72;6.13;;;28.30;99.90;;;;;;5041061;28;20041;-81
2023/06/20 10:06:22;;;;;;;7.03;6.18;;;28.30;99.90;;;;;;5042224;28;20053;-81
2023/06/20 10:08:49;;;;;;;10.57;5.40;;;28.30;99.90;;;;;;5039472;28;20045;-81
2023/06/20 10:11:15;;;;;;;6.05;5.45;;;28.40;99.90;;;;;;5045884;28;20053;-81
2023/06/20 10:13:41;;;;;;;6.15;5.55;;;28.70;99.90;;;;;;5059673;28;20041;-81
2023/06/20 10:16:07;;;;;;;7.90;6.43;;;28.40;99.90;;;;;;5061433;28;20105;-81
2023/06/20 10:18:33;;;;;;;6.22;5.60;;;28.40;99.90;;;;;;5061819;28;20049;-81
2023/06/20 10:21:02;;;;;;;7.65;5.40;;;28.40;99.90;;;;;;5050147;28;20084;-82
2023/06/20 10:23:34;;;;;;;5.78;5.25;;;28.70;99.90;;;;;;5042055;28;20377;-81
2023/06/20 10:26:02;;;;;;;6.57;6.05;;;28.80;99.90;;;;;;5041243;28;20484;-81
2023/06/20 10:28:29;;;;;;;5.65;4.90;;;28.60;99.90;;;;;;5041292;28;20045;-81
2023/06/20 10:30:57;;;;;;;5.22;4.82;;;28.60;99.90;;;;;;5039216;28;20046;-81
2023/06/20 10:33:33;;;;;;;5.80;5.30;;;28.90;99.90;;;;;;5034444;28;20558;-81
2023/06/20 10:36:12;;;;;;;;;;;28.80;99.90;;;;;;5016047;28;20049;-81
2023/06/20 10:39:06;;;;;;;5.63;5.00;;;28.70;99.90;;;;;;5039290;28;20300;-81
2023/06/20 10:41:33;;;;;;;5.22;4.82;;;29.10;99.90;;;;;;5022828;28;20117;-82
2023/06/20 10:44:00;;;;;;;6.77;5.03;;;29.50;99.90;;;;;;5029537;28;20038;-82
2023/06/20 10:46:46;;;;;;;5.38;4.97;;;29.60;99.90;;;;;;5045024;28;20296;-82
2023/06/20 10:49:12;;;;;;;6.13;4.80;;;29.60;99.90;;;;;;5044362;28;20093;-81
2023/06/20 10:51:48;;;;;;;5.30;4.50;;;29.90;99.90;;;;;;5040937;28;20042;-82
2023/06/20 10:54:15;;;;;;;7.07;4.80;;;29.60;99.90;;;;;;5025860;28;20042;-82
2023/06/20 10:56:40;;;;;;;;;;;30.10;99.90;;;;;;5024762;28;20065;-82
2023/06/20 10:59:09;;;;;;;7.53;5.50;;;30.00;99.90;;;;;;5022764;28;20229;-81
2023/06/20 11:01:35;;;;;;;6.35;5.53;;;30.00;99.90;;;;;;5015852;28;20043;-80
2023/06/20 11:04:05;;;;;;;5.75;5.20;;;29.80;99.90;;;;;;5038642;28;20093;-82
2023/06/20 11:06:32;;;;;;;6.13;5.50;;;30.10;99.90;;;;;;5039032;28;20057;-81
2023/06/20 11:08:59;;;;;;;7.00;5.78;;;30.30;99.90;;;;;;5057822;28;20082;-81
2023/06/20 11:11:38;;;;;;;5.65;5.25;;;30.40;99.60;;;;;;5057390;28;20083;-81
2023/06/20 11:14:14;;;;;;;6.50;5.28;;;30.20;98.80;;;;;;5057998;28;20144;-82
2023/06/20 11:16:41;;;;;;;6.95;5.72;;;30.30;99.10;;;;;;5052368;28;20479;-83
2023/06/20 11:19:07;;;;;;;;;;;30.30;99.10;;;;;;5062067;28;20371;-84
2023/06/20 11:21:33;;;;;;;5.80;5.30;;;30.20;99.20;;;;;;5060922;28;19921;-83
2023/06/20 11:24:03;;;;;;;5.63;5.07;;;30.10;98.90;;;;;;5060571;28;20106;-83
2023/06/20 11:26:30;;;;;;;6.50;4.97;;;30.00;99.00;;;;;;5061968;28;20049;-82
2023/06/20 11:29:03;;;;;;;6.63;4.90;;;29.70;99.10;;;;;;5066388;28;20047;-82
2023/06/20 11:31:29;;;;;;;5.47;5.07;;;29.60;99.30;;;;;;5075207;28;20097;-82
2023/06/20 11:34:15;;;;;;;5.80;5.13;;;29.50;99.50;;;;;;5065132;28;20128;-82
2023/06/20 11:36:41;;;;;;;6.63;6.03;;;29.70;99.90;;;;;;5057891;28;20053;-82
2023/06/20 11:39:12;;;;;;;6.03;5.53;;;29.70;99.90;;;;;;5059976;28;20289;-83
2023/06/20 11:41:37;;;;;;;7.30;5.75;;;29.80;99.90;;;;;;5061748;28;20038;-82
2023/06/20 11:44:04;;;;;;;12.00;5.32;;;29.70;99.90;;;;;;5064276;28;20037;-83
2023/06/20 11:46:29;;;;;;;6.60;5.35;;;29.40;99.90;;;;;;5046128;28;20045;-83
2023/06/20 11:48:59;;;;;;;11.35;4.95;;;29.10;99.50;;;;;;5049201;28;20118;-83
2023/06/20 11:51:26;;;;;;;5.32;4.82;;;29.30;99.90;;;;;;5043524;28;20049;-83
2023/06/20 11:54:02;;;;;;;4.93;4.53;;;29.60;99.80;;;;;;5061821;28;20048;-83
2023/06/20 11:56:28;;;;;;;6.07;5.03;;;29.80;99.40;;;;;;5061976;28;20059;-82
2023/06/20 11:58:54;;;;;;;6.38;5.10;;;30.00;99.40;;;;;;5063559;28;20650;-83
2023/06/20 12:01:21;;;;;;;5.63;5.10;;;30.00;99.50;;;;;;5061804;28;20045;-82
2023/06/20 12:04:08;;;;;;;5.63;4.60;;;30.30;99.50;;;;;;5058472;28;20091;-83
2023/06/20 12:06:42;;;;;;;6.85;4.85;;;30.80;99.60;;;;;;5059576;28;20109;-83
2023/06/20 12:09:11;;;;;;;5.40;4.70;;;31.10;99.40;;;;;;5046484;28;20087;-83
2023/06/20 12:11:47;;;;;;;5.47;5.07;;;30.80;99.70;;;;;;5059056;28;20049;-83
2023/06/20 12:14:14;;;;;;;6.18;4.18;;;30.90;99.00;;;;;;5062267;28;20057;-83
2023/06/20 12:16:41;;;;;;;4.25;3.95;;;30.60;98.50;;;;;;5059226;28;20041;-83
2023/06/20 12:19:06;;;;;;;6.15;4.57;;;30.30;98.70;;;;;;5044075;28;20044;-83
2023/06/20 12:21:32;;;;;;;4.70;4.35;;;30.60;98.40;;;;;;5051542;28;20064;-83
2023/06/20 12:23:58;;;;;;;5.40;4.68;;;30.70;98.40;;;;;;5046331;28;20070;-83
2023/06/20 12:26:24;;;;;;;4.50;4.20;;;30.70;98.40;;;;;;5058741;28;20175;-83
2023/06/20 12:28:49;;;;;;;6.35;4.15;;;31.40;98.10;;;;;;5064472;28;20037;-83
2023/06/20 12:31:15;;;;;;;4.78;4.38;;;31.50;98.10;;;;;;5059341;28;20036;-83
2023/06/20 12:33:41;;;;;;;4.82;4.40;;;31.80;97.40;;;;;;5045210;28;20132;-83
2023/06/20 12:36:08;;;;;;;4.88;4.00;;;31.70;96.90;;;;;;5061861;28;20094;-83
2023/06/20 12:38:34;;;;;;;;;;;31.70;97.40;;;;;;5056963;28;20072;-83